Nanoose Bay, British Columbia

Past 24 Hour Conditions

Date / Time
(PST)
Conditions Temp
(°F)
Humidity
(%)
Dew Point
(°F)
Wind
(mph)
Pressure
(inches)
Visibility
(miles)
22 December 2014
3:00 N/A 40   84 36 W 8 N/A N/A
2:00 N/A 40   87 37 WNW 7 N/A N/A
1:00 N/A 41 89 38 W 6 N/A N/A
00:00 N/A 42 89 39 WNW 3 N/A N/A
21 December 2014
23:00 N/A 44 84 39 NNW 2 N/A N/A
22:00 N/A 45 81 40 NW 3 N/A N/A
21:00 N/A 46 80 40 NW 8 N/A N/A
20:00 N/A 44 91 42 SSW 3 N/A N/A
19:00 N/A 45 89 42 calm N/A N/A
18:00 N/A 46 88 42 NW 2 N/A N/A
17:00 N/A 45 92 43 NNW 3 N/A N/A
16:00 N/A 46 90 43 NW 2 N/A N/A
15:00 N/A 47 90 44 NNE 3 N/A N/A
14:00 N/A 48   86 43 ENE 3 N/A N/A
13:00 N/A 48   85 44 SSE 4 N/A N/A
12:00 N/A 45 93 43 NNW 2 N/A N/A
11:00 N/A 44 95 42 ESE 2 N/A N/A
10:00 N/A 41 95 40 WNW 2 N/A N/A
9:00 N/A 41 95 40 NE 3 N/A N/A
8:00 N/A 41 95 39 S 2 N/A N/A
7:00 N/A 41 95 40 ENE 5 N/A N/A
6:00 N/A 42 94 41 NE 4 N/A N/A
5:00 N/A 42 94 41 W 7 N/A N/A
4:00 N/A 42 94 41 WNW 5 N/A N/A
3:00 N/A 45 93 43 N 4 N/A N/A
N/A Not available
↑ Highest temperature
↓ Lowest temperature

If you require additional historical weather information, please visit Climate Data Online.

What we are doing

Date modified: